sensor_id;sensor_type;location;lat;lon;timestamp;temperature;humidity
13616;DHT22;6879;51.368;6.782;2023-08-20T00:00:29;18.10;99.90
13616;DHT22;6879;51.368;6.782;2023-08-20T00:03:01;18.00;99.90
13616;DHT22;6879;51.368;6.782;2023-08-20T00:05:32;18.00;99.90
13616;DHT22;6879;51.368;6.782;2023-08-20T00:08:01;18.00;99.90
13616;DHT22;6879;51.368;6.782;2023-08-20T00:10:30;18.10;99.90
13616;DHT22;6879;51.368;6.782;2023-08-20T00:13:00;18.20;99.90
13616;DHT22;6879;51.368;6.782;2023-08-20T00:15:29;18.10;99.90
13616;DHT22;6879;51.368;6.782;2023-08-20T00:17:58;18.00;99.90
13616;DHT22;6879;51.368;6.782;2023-08-20T00:20:28;18.00;99.90
13616;DHT22;6879;51.368;6.782;2023-08-20T00:22:57;17.90;99.90
13616;DHT22;6879;51.368;6.782;2023-08-20T00:25:26;17.90;99.90
13616;DHT22;6879;51.368;6.782;2023-08-20T00:27:55;17.80;99.90
13616;DHT22;6879;51.368;6.782;2023-08-20T00:30:25;17.80;99.90
13616;DHT22;6879;51.368;6.782;2023-08-20T00:32:53;17.70;99.90
13616;DHT22;6879;51.368;6.782;2023-08-20T00:35:23;17.70;99.90
13616;DHT22;6879;51.368;6.782;2023-08-20T00:37:52;17.70;99.90
13616;DHT22;6879;51.368;6.782;2023-08-20T00:40:23;17.70;99.90
13616;DHT22;6879;51.368;6.782;2023-08-20T00:42:52;17.70;99.90
13616;DHT22;6879;51.368;6.782;2023-08-20T00:45:22;17.60;99.90
13616;DHT22;6879;51.368;6.782;2023-08-20T00:47:53;17.60;99.90
13616;DHT22;6879;51.368;6.782;2023-08-20T00:50:22;17.70;99.90
13616;DHT22;6879;51.368;6.782;2023-08-20T00:52:51;17.60;99.90
13616;DHT22;6879;51.368;6.782;2023-08-20T00:55:20;17.50;99.90
13616;DHT22;6879;51.368;6.782;2023-08-20T00:57:49;17.50;99.90
13616;DHT22;6879;51.368;6.782;2023-08-20T01:00:18;17.50;99.90
13616;DHT22;6879;51.368;6.782;2023-08-20T01:02:47;17.50;99.90
13616;DHT22;6879;51.368;6.782;2023-08-20T01:05:18;17.50;99.90
13616;DHT22;6879;51.368;6.782;2023-08-20T01:08:04;17.60;99.90
13616;DHT22;6879;51.368;6.782;2023-08-20T01:10:40;17.60;99.90
13616;DHT22;6879;51.368;6.782;2023-08-20T01:13:11;17.50;99.90
13616;DHT22;6879;51.368;6.782;2023-08-20T01:15:40;17.50;99.90
13616;DHT22;6879;51.368;6.782;2023-08-20T01:18:08;17.60;99.90
13616;DHT22;6879;51.368;6.782;2023-08-20T01:20:41;17.50;99.90
13616;DHT22;6879;51.368;6.782;2023-08-20T01:26:31;17.50;99.90
13616;DHT22;6879;51.368;6.782;2023-08-20T01:29:05;17.50;99.90
13616;DHT22;6879;51.368;6.782;2023-08-20T01:31:34;17.40;99.90
13616;DHT22;6879;51.368;6.782;2023-08-20T01:34:03;17.50;99.90
13616;DHT22;6879;51.368;6.782;2023-08-20T01:36:32;17.40;99.90
13616;DHT22;6879;51.368;6.782;2023-08-20T01:39:02;17.40;99.90
13616;DHT22;6879;51.368;6.782;2023-08-20T01:41:32;17.40;99.90
13616;DHT22;6879;51.368;6.782;2023-08-20T01:44:00;17.40;99.90
13616;DHT22;6879;51.368;6.782;2023-08-20T01:46:31;17.50;99.90
13616;DHT22;6879;51.368;6.782;2023-08-20T01:48:59;17.40;99.90
13616;DHT22;6879;51.368;6.782;2023-08-20T01:51:28;17.50;99.90
13616;DHT22;6879;51.368;6.782;2023-08-20T01:53:57;17.50;99.90
13616;DHT22;6879;51.368;6.782;2023-08-20T01:56:26;17.50;99.90
13616;DHT22;6879;51.368;6.782;2023-08-20T01:58:55;17.50;99.90
13616;DHT22;6879;51.368;6.782;2023-08-20T02:01:23;17.50;99.90
13616;DHT22;6879;51.368;6.782;2023-08-20T02:03:54;17.50;99.90
13616;DHT22;6879;51.368;6.782;2023-08-20T02:06:23;17.50;99.90
13616;DHT22;6879;51.368;6.782;2023-08-20T02:08:51;17.60;99.90
13616;DHT22;6879;51.368;6.782;2023-08-20T02:11:23;17.70;99.90
13616;DHT22;6879;51.368;6.782;2023-08-20T02:13:51;17.90;99.90
13616;DHT22;6879;51.368;6.782;2023-08-20T02:16:20;18.10;99.90
13616;DHT22;6879;51.368;6.782;2023-08-20T02:18:49;18.30;99.90
13616;DHT22;6879;51.368;6.782;2023-08-20T02:21:19;18.30;99.90
13616;DHT22;6879;51.368;6.782;2023-08-20T02:23:48;18.20;99.90
13616;DHT22;6879;51.368;6.782;2023-08-20T02:26:17;18.50;99.90
13616;DHT22;6879;51.368;6.782;2023-08-20T02:28:45;18.70;99.90
13616;DHT22;6879;51.368;6.782;2023-08-20T02:31:14;18.70;99.90
13616;DHT22;6879;51.368;6.782;2023-08-20T02:33:42;18.70;99.90
13616;DHT22;6879;51.368;6.782;2023-08-20T02:36:13;18.80;99.90
13616;DHT22;6879;51.368;6.782;2023-08-20T02:38:45;18.80;99.90
13616;DHT22;6879;51.368;6.782;2023-08-20T02:41:14;19.00;99.90
13616;DHT22;6879;51.368;6.782;2023-08-20T02:43:43;19.00;99.90
13616;DHT22;6879;51.368;6.782;2023-08-20T02:46:11;18.80;99.90
13616;DHT22;6879;51.368;6.782;2023-08-20T02:48:42;18.80;99.90
13616;DHT22;6879;51.368;6.782;2023-08-20T02:51:12;18.80;99.90
13616;DHT22;6879;51.368;6.782;2023-08-20T02:53:41;18.80;99.90
13616;DHT22;6879;51.368;6.782;2023-08-20T02:56:12;18.70;99.90
13616;DHT22;6879;51.368;6.782;2023-08-20T02:58:41;18.60;99.90
13616;DHT22;6879;51.368;6.782;2023-08-20T03:01:18;18.40;99.90
13616;DHT22;6879;51.368;6.782;2023-08-20T03:03:47;18.30;99.90
13616;DHT22;6879;51.368;6.782;2023-08-20T03:06:17;18.20;99.90
13616;DHT22;6879;51.368;6.782;2023-08-20T03:08:46;18.20;99.90
13616;DHT22;6879;51.368;6.782;2023-08-20T03:11:16;18.20;99.90
13616;DHT22;6879;51.368;6.782;2023-08-20T03:13:45;18.20;99.90
13616;DHT22;6879;51.368;6.782;2023-08-20T03:16:14;18.10;99.90
13616;DHT22;6879;51.368;6.782;2023-08-20T03:18:42;18.00;99.90
13616;DHT22;6879;51.368;6.782;2023-08-20T03:21:11;18.00;99.90
13616;DHT22;6879;51.368;6.782;2023-08-20T03:23:40;18.10;99.90
13616;DHT22;6879;51.368;6.782;2023-08-20T03:26:08;18.30;99.90
13616;DHT22;6879;51.368;6.782;2023-08-20T03:28:39;18.50;99.90
13616;DHT22;6879;51.368;6.782;2023-08-20T03:31:07;18.60;99.90
13616;DHT22;6879;51.368;6.782;2023-08-20T03:33:40;18.70;99.90
13616;DHT22;6879;51.368;6.782;2023-08-20T03:36:09;18.70;99.90
13616;DHT22;6879;51.368;6.782;2023-08-20T03:38:38;18.70;99.90
13616;DHT22;6879;51.368;6.782;2023-08-20T03:41:07;18.80;99.90
13616;DHT22;6879;51.368;6.782;2023-08-20T03:43:36;18.70;99.90
13616;DHT22;6879;51.368;6.782;2023-08-20T03:46:06;18.50;99.90
13616;DHT22;6879;51.368;6.782;2023-08-20T03:48:36;18.40;99.90
13616;DHT22;6879;51.368;6.782;2023-08-20T03:51:04;18.30;99.90
13616;DHT22;6879;51.368;6.782;2023-08-20T03:53:33;18.10;99.90
13616;DHT22;6879;51.368;6.782;2023-08-20T03:56:02;18.00;99.90
13616;DHT22;6879;51.368;6.782;2023-08-20T03:58:32;17.90;99.90
13616;DHT22;6879;51.368;6.782;2023-08-20T04:01:01;17.90;99.90
13616;DHT22;6879;51.368;6.782;2023-08-20T04:03:32;18.00;99.90
13616;DHT22;6879;51.368;6.782;2023-08-20T04:06:01;17.90;99.90
13616;DHT22;6879;51.368;6.782;2023-08-20T04:08:31;17.80;99.90
13616;DHT22;6879;51.368;6.782;2023-08-20T04:11:02;18.00;99.90
13616;DHT22;6879;51.368;6.782;2023-08-20T04:13:31;17.90;99.90
13616;DHT22;6879;51.368;6.782;2023-08-20T04:16:00;17.80;99.90
13616;DHT22;6879;51.368;6.782;2023-08-20T04:18:28;17.60;99.90
13616;DHT22;6879;51.368;6.782;2023-08-20T04:20:59;17.50;99.90
13616;DHT22;6879;51.368;6.782;2023-08-20T04:23:27;17.50;99.90
13616;DHT22;6879;51.368;6.782;2023-08-20T04:25:56;17.50;99.90
13616;DHT22;6879;51.368;6.782;2023-08-20T04:28:25;17.50;99.90
13616;DHT22;6879;51.368;6.782;2023-08-20T04:30:54;17.50;99.90
13616;DHT22;6879;51.368;6.782;2023-08-20T04:33:27;17.50;99.90
13616;DHT22;6879;51.368;6.782;2023-08-20T04:35:58;17.70;99.90
13616;DHT22;6879;51.368;6.782;2023-08-20T04:38:26;17.80;99.90
13616;DHT22;6879;51.368;6.782;2023-08-20T04:40:57;17.70;99.90
13616;DHT22;6879;51.368;6.782;2023-08-20T04:43:25;17.70;99.90
13616;DHT22;6879;51.368;6.782;2023-08-20T04:45:55;17.80;99.90
13616;DHT22;6879;51.368;6.782;2023-08-20T04:48:24;17.70;99.90
13616;DHT22;6879;51.368;6.782;2023-08-20T04:50:53;17.60;99.90
13616;DHT22;6879;51.368;6.782;2023-08-20T04:53:23;17.50;99.90
13616;DHT22;6879;51.368;6.782;2023-08-20T04:55:52;17.50;99.90
13616;DHT22;6879;51.368;6.782;2023-08-20T04:58:22;17.40;99.90
13616;DHT22;6879;51.368;6.782;2023-08-20T05:00:50;17.40;99.90
13616;DHT22;6879;51.368;6.782;2023-08-20T05:03:19;17.40;99.90
13616;DHT22;6879;51.368;6.782;2023-08-20T05:05:49;17.40;99.90
13616;DHT22;6879;51.368;6.782;2023-08-20T05:08:17;17.40;99.90
13616;DHT22;6879;51.368;6.782;2023-08-20T05:10:49;17.40;99.90
13616;DHT22;6879;51.368;6.782;2023-08-20T05:13:18;17.40;99.90
13616;DHT22;6879;51.368;6.782;2023-08-20T05:15:49;17.40;99.90
13616;DHT22;6879;51.368;6.782;2023-08-20T05:18:18;17.50;99.90
13616;DHT22;6879;51.368;6.782;2023-08-20T05:20:47;17.50;99.90
13616;DHT22;6879;51.368;6.782;2023-08-20T05:23:16;17.50;99.90
13616;DHT22;6879;51.368;6.782;2023-08-20T05:25:45;17.60;99.90
13616;DHT22;6879;51.368;6.782;2023-08-20T05:28:15;17.60;99.90
13616;DHT22;6879;51.368;6.782;2023-08-20T05:30:51;17.70;99.90
13616;DHT22;6879;51.368;6.782;2023-08-20T05:33:21;17.80;99.90
13616;DHT22;6879;51.368;6.782;2023-08-20T05:35:50;17.80;99.90
13616;DHT22;6879;51.368;6.782;2023-08-20T05:38:20;17.90;99.90
13616;DHT22;6879;51.368;6.782;2023-08-20T05:40:50;17.90;99.90
13616;DHT22;6879;51.368;6.782;2023-08-20T05:43:20;18.00;99.90
13616;DHT22;6879;51.368;6.782;2023-08-20T05:45:49;18.10;99.90
13616;DHT22;6879;51.368;6.782;2023-08-20T05:48:21;18.30;99.90
13616;DHT22;6879;51.368;6.782;2023-08-20T05:50:51;18.50;99.90
13616;DHT22;6879;51.368;6.782;2023-08-20T05:53:20;18.60;99.90
13616;DHT22;6879;51.368;6.782;2023-08-20T05:55:49;18.90;99.90
13616;DHT22;6879;51.368;6.782;2023-08-20T05:58:17;19.00;99.90
13616;DHT22;6879;51.368;6.782;2023-08-20T06:00:47;19.00;99.90
13616;DHT22;6879;51.368;6.782;2023-08-20T06:03:16;19.10;99.90
13616;DHT22;6879;51.368;6.782;2023-08-20T06:05:44;19.30;99.90
13616;DHT22;6879;51.368;6.782;2023-08-20T06:08:13;19.50;99.90
13616;DHT22;6879;51.368;6.782;2023-08-20T06:10:41;19.70;99.90
13616;DHT22;6879;51.368;6.782;2023-08-20T06:13:11;19.70;99.90
13616;DHT22;6879;51.368;6.782;2023-08-20T06:15:39;19.80;99.90
13616;DHT22;6879;51.368;6.782;2023-08-20T06:18:09;19.80;99.90
13616;DHT22;6879;51.368;6.782;2023-08-20T06:20:38;19.90;99.90
13616;DHT22;6879;51.368;6.782;2023-08-20T06:23:06;20.00;99.90
13616;DHT22;6879;51.368;6.782;2023-08-20T06:25:35;20.10;99.90
13616;DHT22;6879;51.368;6.782;2023-08-20T06:28:04;20.20;99.90
13616;DHT22;6879;51.368;6.782;2023-08-20T06:30:33;20.30;99.90
13616;DHT22;6879;51.368;6.782;2023-08-20T06:33:01;20.50;99.90
13616;DHT22;6879;51.368;6.782;2023-08-20T06:35:31;20.70;99.90
13616;DHT22;6879;51.368;6.782;2023-08-20T06:38:01;20.90;99.90
13616;DHT22;6879;51.368;6.782;2023-08-20T06:40:30;20.80;99.90
13616;DHT22;6879;51.368;6.782;2023-08-20T06:42:59;20.90;99.90
13616;DHT22;6879;51.368;6.782;2023-08-20T06:45:28;21.00;99.90
13616;DHT22;6879;51.368;6.782;2023-08-20T06:47:56;21.10;99.90
13616;DHT22;6879;51.368;6.782;2023-08-20T06:50:28;21.20;99.90
13616;DHT22;6879;51.368;6.782;2023-08-20T06:53:07;21.40;99.90
13616;DHT22;6879;51.368;6.782;2023-08-20T06:55:37;21.50;99.90
13616;DHT22;6879;51.368;6.782;2023-08-20T06:58:09;21.60;99.90
13616;DHT22;6879;51.368;6.782;2023-08-20T07:00:41;21.90;99.90
13616;DHT22;6879;51.368;6.782;2023-08-20T07:03:11;21.90;99.90
13616;DHT22;6879;51.368;6.782;2023-08-20T07:05:42;22.00;99.90
13616;DHT22;6879;51.368;6.782;2023-08-20T07:08:16;22.00;99.90
13616;DHT22;6879;51.368;6.782;2023-08-20T07:10:47;22.10;99.90
13616;DHT22;6879;51.368;6.782;2023-08-20T07:13:19;22.20;99.90
13616;DHT22;6879;51.368;6.782;2023-08-20T07:15:55;22.30;99.90
13616;DHT22;6879;51.368;6.782;2023-08-20T07:18:27;22.50;99.90
13616;DHT22;6879;51.368;6.782;2023-08-20T07:20:56;22.60;99.90
13616;DHT22;6879;51.368;6.782;2023-08-20T07:23:28;22.60;99.90
13616;DHT22;6879;51.368;6.782;2023-08-20T07:26:07;22.80;99.90
13616;DHT22;6879;51.368;6.782;2023-08-20T07:28:37;22.80;99.90
13616;DHT22;6879;51.368;6.782;2023-08-20T07:31:24;22.90;99.90
13616;DHT22;6879;51.368;6.782;2023-08-20T07:33:54;23.10;99.90
13616;DHT22;6879;51.368;6.782;2023-08-20T07:36:24;23.20;99.90
13616;DHT22;6879;51.368;6.782;2023-08-20T07:38:59;23.30;99.90
13616;DHT22;6879;51.368;6.782;2023-08-20T07:41:30;23.40;99.90
13616;DHT22;6879;51.368;6.782;2023-08-20T07:44:00;23.50;99.90
13616;DHT22;6879;51.368;6.782;2023-08-20T07:46:33;23.60;99.90
13616;DHT22;6879;51.368;6.782;2023-08-20T07:49:04;23.70;99.90
13616;DHT22;6879;51.368;6.782;2023-08-20T07:51:33;23.80;99.90
13616;DHT22;6879;51.368;6.782;2023-08-20T07:54:07;23.90;99.90
13616;DHT22;6879;51.368;6.782;2023-08-20T07:56:36;23.90;99.90
13616;DHT22;6879;51.368;6.782;2023-08-20T07:59:07;24.00;99.90
13616;DHT22;6879;51.368;6.782;2023-08-20T08:01:36;23.90;99.90
13616;DHT22;6879;51.368;6.782;2023-08-20T08:04:06;24.00;99.90
13616;DHT22;6879;51.368;6.782;2023-08-20T08:06:38;24.20;99.90
13616;DHT22;6879;51.368;6.782;2023-08-20T08:09:26;24.30;99.90
13616;DHT22;6879;51.368;6.782;2023-08-20T08:11:55;24.40;99.90
13616;DHT22;6879;51.368;6.782;2023-08-20T08:14:25;24.60;99.90
13616;DHT22;6879;51.368;6.782;2023-08-20T08:16:56;24.70;99.90
13616;DHT22;6879;51.368;6.782;2023-08-20T08:19:25;24.80;99.90
13616;DHT22;6879;51.368;6.782;2023-08-20T08:21:54;24.90;99.90
13616;DHT22;6879;51.368;6.782;2023-08-20T08:24:25;25.00;99.90
13616;DHT22;6879;51.368;6.782;2023-08-20T08:26:54;25.10;99.90
13616;DHT22;6879;51.368;6.782;2023-08-20T08:29:25;25.20;99.90
13616;DHT22;6879;51.368;6.782;2023-08-20T08:31:55;25.30;99.90
13616;DHT22;6879;51.368;6.782;2023-08-20T08:34:23;25.30;99.90
13616;DHT22;6879;51.368;6.782;2023-08-20T08:36:52;25.40;99.90
13616;DHT22;6879;51.368;6.782;2023-08-20T08:39:21;25.40;99.90
13616;DHT22;6879;51.368;6.782;2023-08-20T08:42:00;25.50;99.90
13616;DHT22;6879;51.368;6.782;2023-08-20T08:44:32;25.70;99.90
13616;DHT22;6879;51.368;6.782;2023-08-20T08:47:03;25.80;99.90
13616;DHT22;6879;51.368;6.782;2023-08-20T08:49:34;26.10;99.90
13616;DHT22;6879;51.368;6.782;2023-08-20T08:52:04;26.20;99.90
13616;DHT22;6879;51.368;6.782;2023-08-20T08:54:35;26.30;99.90
13616;DHT22;6879;51.368;6.782;2023-08-20T08:57:08;26.60;99.90
13616;DHT22;6879;51.368;6.782;2023-08-20T08:59:37;26.80;99.90
13616;DHT22;6879;51.368;6.782;2023-08-20T09:02:09;27.00;99.90
13616;DHT22;6879;51.368;6.782;2023-08-20T09:04:39;27.30;99.90
13616;DHT22;6879;51.368;6.782;2023-08-20T09:07:12;27.60;99.90
13616;DHT22;6879;51.368;6.782;2023-08-20T09:09:42;27.90;96.90
13616;DHT22;6879;51.368;6.782;2023-08-20T09:12:17;27.80;95.60
13616;DHT22;6879;51.368;6.782;2023-08-20T09:14:50;28.10;95.80
13616;DHT22;6879;51.368;6.782;2023-08-20T09:17:19;28.40;94.80
13616;DHT22;6879;51.368;6.782;2023-08-20T09:19:48;28.60;93.80
13616;DHT22;6879;51.368;6.782;2023-08-20T09:22:17;28.80;94.90
13616;DHT22;6879;51.368;6.782;2023-08-20T09:24:51;28.80;94.60
13616;DHT22;6879;51.368;6.782;2023-08-20T09:27:22;28.90;95.30
13616;DHT22;6879;51.368;6.782;2023-08-20T09:29:52;28.90;94.10
13616;DHT22;6879;51.368;6.782;2023-08-20T09:32:23;28.90;95.80
13616;DHT22;6879;51.368;6.782;2023-08-20T09:34:53;28.80;96.30
13616;DHT22;6879;51.368;6.782;2023-08-20T09:37:23;28.80;96.70
13616;DHT22;6879;51.368;6.782;2023-08-20T09:39:53;28.90;95.10
13616;DHT22;6879;51.368;6.782;2023-08-20T09:42:26;28.80;94.80
13616;DHT22;6879;51.368;6.782;2023-08-20T09:44:56;28.80;94.40
13616;DHT22;6879;51.368;6.782;2023-08-20T09:47:28;28.60;94.40
13616;DHT22;6879;51.368;6.782;2023-08-20T09:49:57;28.80;94.20
13616;DHT22;6879;51.368;6.782;2023-08-20T09:52:34;29.50;93.10
13616;DHT22;6879;51.368;6.782;2023-08-20T09:55:08;30.50;89.40
13616;DHT22;6879;51.368;6.782;2023-08-20T09:57:41;30.50;89.80
13616;DHT22;6879;51.368;6.782;2023-08-20T10:00:13;30.10;90.10
13616;DHT22;6879;51.368;6.782;2023-08-20T10:02:45;30.10;90.70
13616;DHT22;6879;51.368;6.782;2023-08-20T10:05:14;29.90;91.00
13616;DHT22;6879;51.368;6.782;2023-08-20T10:07:44;29.60;91.00
13616;DHT22;6879;51.368;6.782;2023-08-20T10:10:14;29.60;90.70
13616;DHT22;6879;51.368;6.782;2023-08-20T10:12:45;29.00;92.30
13616;DHT22;6879;51.368;6.782;2023-08-20T10:15:15;28.90;93.90
13616;DHT22;6879;51.368;6.782;2023-08-20T10:17:45;29.00;93.90
13616;DHT22;6879;51.368;6.782;2023-08-20T10:20:15;29.40;93.40
13616;DHT22;6879;51.368;6.782;2023-08-20T10:22:45;30.00;90.50
13616;DHT22;6879;51.368;6.782;2023-08-20T10:25:22;30.30;88.60
13616;DHT22;6879;51.368;6.782;2023-08-20T10:27:53;31.30;85.70
13616;DHT22;6879;51.368;6.782;2023-08-20T10:30:24;32.30;84.30
13616;DHT22;6879;51.368;6.782;2023-08-20T10:32:54;32.60;83.10
13616;DHT22;6879;51.368;6.782;2023-08-20T10:35:25;30.90;87.60
13616;DHT22;6879;51.368;6.782;2023-08-20T10:38:01;29.50;92.10
13616;DHT22;6879;51.368;6.782;2023-08-20T10:40:53;29.40;93.40
13616;DHT22;6879;51.368;6.782;2023-08-20T10:43:31;30.50;90.10
13616;DHT22;6879;51.368;6.782;2023-08-20T10:46:07;29.60;90.80
13616;DHT22;6879;51.368;6.782;2023-08-20T10:48:38;29.40;92.00
13616;DHT22;6879;51.368;6.782;2023-08-20T10:51:11;29.30;92.10
13616;DHT22;6879;51.368;6.782;2023-08-20T10:53:42;29.60;91.80
13616;DHT22;6879;51.368;6.782;2023-08-20T10:56:13;29.90;90.40
13616;DHT22;6879;51.368;6.782;2023-08-20T10:58:45;30.80;88.40
13616;DHT22;6879;51.368;6.782;2023-08-20T11:01:15;32.30;83.00
13616;DHT22;6879;51.368;6.782;2023-08-20T11:03:44;33.50;79.50
13616;DHT22;6879;51.368;6.782;2023-08-20T11:06:13;34.70;77.50
13616;DHT22;6879;51.368;6.782;2023-08-20T11:08:42;35.30;76.70
13616;DHT22;6879;51.368;6.782;2023-08-20T11:11:11;35.70;74.60
13616;DHT22;6879;51.368;6.782;2023-08-20T11:13:40;35.20;76.50
13616;DHT22;6879;51.368;6.782;2023-08-20T11:16:11;33.30;78.20
13616;DHT22;6879;51.368;6.782;2023-08-20T11:18:40;31.10;84.10
13616;DHT22;6879;51.368;6.782;2023-08-20T11:21:09;30.70;82.10
13616;DHT22;6879;51.368;6.782;2023-08-20T11:23:39;29.80;82.80
13616;DHT22;6879;51.368;6.782;2023-08-20T11:26:10;30.50;83.10
13616;DHT22;6879;51.368;6.782;2023-08-20T11:28:38;31.60;80.30
13616;DHT22;6879;51.368;6.782;2023-08-20T11:31:14;32.20;78.40
13616;DHT22;6879;51.368;6.782;2023-08-20T11:33:43;32.30;78.60
13616;DHT22;6879;51.368;6.782;2023-08-20T11:36:12;32.10;78.70
13616;DHT22;6879;51.368;6.782;2023-08-20T11:38:40;31.20;81.10
13616;DHT22;6879;51.368;6.782;2023-08-20T11:41:09;30.40;83.80
13616;DHT22;6879;51.368;6.782;2023-08-20T11:43:41;29.70;85.70
13616;DHT22;6879;51.368;6.782;2023-08-20T11:46:14;29.60;86.80
13616;DHT22;6879;51.368;6.782;2023-08-20T11:48:58;29.80;86.30
13616;DHT22;6879;51.368;6.782;2023-08-20T11:51:27;30.20;84.80
13616;DHT22;6879;51.368;6.782;2023-08-20T11:53:57;31.40;82.20
13616;DHT22;6879;51.368;6.782;2023-08-20T11:56:26;32.70;78.70
13616;DHT22;6879;51.368;6.782;2023-08-20T11:58:59;33.80;75.50
13616;DHT22;6879;51.368;6.782;2023-08-20T12:01:31;35.00;74.60
13616;DHT22;6879;51.368;6.782;2023-08-20T12:04:01;36.60;71.00
13616;DHT22;6879;51.368;6.782;2023-08-20T12:06:33;36.00;71.70
13616;DHT22;6879;51.368;6.782;2023-08-20T12:09:18;35.30;72.40
13616;DHT22;6879;51.368;6.782;2023-08-20T12:11:48;34.60;74.10
13616;DHT22;6879;51.368;6.782;2023-08-20T12:14:18;34.30;74.90
13616;DHT22;6879;51.368;6.782;2023-08-20T12:16:48;34.20;75.30
13616;DHT22;6879;51.368;6.782;2023-08-20T12:19:20;33.20;76.60
13616;DHT22;6879;51.368;6.782;2023-08-20T12:21:49;32.30;78.30
13616;DHT22;6879;51.368;6.782;2023-08-20T12:24:18;33.10;77.90
13616;DHT22;6879;51.368;6.782;2023-08-20T12:26:48;33.80;75.50
13616;DHT22;6879;51.368;6.782;2023-08-20T12:29:16;32.90;76.80
13616;DHT22;6879;51.368;6.782;2023-08-20T12:31:45;31.40;79.40
13616;DHT22;6879;51.368;6.782;2023-08-20T12:34:15;30.90;80.90
13616;DHT22;6879;51.368;6.782;2023-08-20T12:36:44;30.60;82.10
13616;DHT22;6879;51.368;6.782;2023-08-20T12:39:13;30.60;82.60
13616;DHT22;6879;51.368;6.782;2023-08-20T12:41:42;31.00;82.10
13616;DHT22;6879;51.368;6.782;2023-08-20T12:44:10;33.00;79.20
13616;DHT22;6879;51.368;6.782;2023-08-20T12:46:39;34.70;75.30
13616;DHT22;6879;51.368;6.782;2023-08-20T12:49:11;36.20;73.50
13616;DHT22;6879;51.368;6.782;2023-08-20T12:51:41;35.10;72.30
13616;DHT22;6879;51.368;6.782;2023-08-20T12:54:10;33.40;75.50
13616;DHT22;6879;51.368;6.782;2023-08-20T12:56:39;32.60;77.90
13616;DHT22;6879;51.368;6.782;2023-08-20T12:59:08;32.50;77.50
13616;DHT22;6879;51.368;6.782;2023-08-20T13:01:56;32.50;77.70
13616;DHT22;6879;51.368;6.782;2023-08-20T13:04:26;32.30;79.40
13616;DHT22;6879;51.368;6.782;2023-08-20T13:06:58;33.00;77.80
13616;DHT22;6879;51.368;6.782;2023-08-20T13:09:30;34.80;75.00
13616;DHT22;6879;51.368;6.782;2023-08-20T13:13:05;36.10;72.20
13616;DHT22;6879;51.368;6.782;2023-08-20T13:15:56;35.70;70.90
13616;DHT22;6879;51.368;6.782;2023-08-20T13:18:28;34.40;73.10
13616;DHT22;6879;51.368;6.782;2023-08-20T13:21:01;33.00;75.60
13616;DHT22;6879;51.368;6.782;2023-08-20T13:23:38;32.80;76.80
13616;DHT22;6879;51.368;6.782;2023-08-20T13:27:12;32.80;76.00
13616;DHT22;6879;51.368;6.782;2023-08-20T13:30:10;33.60;75.30
13616;DHT22;6879;51.368;6.782;2023-08-20T13:36:07;31.90;76.50
13616;DHT22;6879;51.368;6.782;2023-08-20T13:38:39;33.80;74.60
13616;DHT22;6879;51.368;6.782;2023-08-20T13:41:14;35.10;71.80
13616;DHT22;6879;51.368;6.782;2023-08-20T13:43:58;36.30;69.60
13616;DHT22;6879;51.368;6.782;2023-08-20T13:47:04;37.10;68.20
13616;DHT22;6879;51.368;6.782;2023-08-20T13:49:34;38.20;65.60
13616;DHT22;6879;51.368;6.782;2023-08-20T13:52:03;38.10;65.40
13616;DHT22;6879;51.368;6.782;2023-08-20T13:54:35;37.90;66.00
13616;DHT22;6879;51.368;6.782;2023-08-20T13:57:13;37.60;65.50
13616;DHT22;6879;51.368;6.782;2023-08-20T13:59:49;37.80;65.90
13616;DHT22;6879;51.368;6.782;2023-08-20T14:02:23;38.50;64.00
13616;DHT22;6879;51.368;6.782;2023-08-20T14:04:58;38.50;63.70
13616;DHT22;6879;51.368;6.782;2023-08-20T14:07:32;36.70;66.30
13616;DHT22;6879;51.368;6.782;2023-08-20T14:10:27;36.40;67.00
13616;DHT22;6879;51.368;6.782;2023-08-20T14:12:58;37.10;65.70
13616;DHT22;6879;51.368;6.782;2023-08-20T14:19:30;37.80;64.90
13616;DHT22;6879;51.368;6.782;2023-08-20T14:22:03;39.00;63.70
13616;DHT22;6879;51.368;6.782;2023-08-20T14:24:42;38.80;62.70
13616;DHT22;6879;51.368;6.782;2023-08-20T14:27:19;39.50;62.40
13616;DHT22;6879;51.368;6.782;2023-08-20T14:29:54;39.90;61.00
13616;DHT22;6879;51.368;6.782;2023-08-20T14:32:27;38.00;63.40
13616;DHT22;6879;51.368;6.782;2023-08-20T14:35:08;35.50;66.70
13616;DHT22;6879;51.368;6.782;2023-08-20T14:37:46;34.40;69.30
13616;DHT22;6879;51.368;6.782;2023-08-20T14:40:25;35.20;69.90
13616;DHT22;6879;51.368;6.782;2023-08-20T14:43:01;36.40;67.60
13616;DHT22;6879;51.368;6.782;2023-08-20T14:45:34;38.00;66.50
13616;DHT22;6879;51.368;6.782;2023-08-20T14:48:07;39.20;64.20
13616;DHT22;6879;51.368;6.782;2023-08-20T14:50:45;41.00;61.30
13616;DHT22;6879;51.368;6.782;2023-08-20T14:53:16;41.50;59.40
13616;DHT22;6879;51.368;6.782;2023-08-20T14:56:00;41.70;60.50
13616;DHT22;6879;51.368;6.782;2023-08-20T14:58:40;41.40;58.80
13616;DHT22;6879;51.368;6.782;2023-08-20T15:01:10;40.40;60.90
13616;DHT22;6879;51.368;6.782;2023-08-20T15:03:47;39.80;61.70
13616;DHT22;6879;51.368;6.782;2023-08-20T15:06:19;38.90;62.20
13616;DHT22;6879;51.368;6.782;2023-08-20T15:08:53;37.10;65.00
13616;DHT22;6879;51.368;6.782;2023-08-20T15:11:27;36.90;66.40
13616;DHT22;6879;51.368;6.782;2023-08-20T15:14:01;37.50;65.90
13616;DHT22;6879;51.368;6.782;2023-08-20T15:16:36;38.20;64.20
13616;DHT22;6879;51.368;6.782;2023-08-20T15:19:13;38.00;63.70
13616;DHT22;6879;51.368;6.782;2023-08-20T15:21:48;36.40;66.20
13616;DHT22;6879;51.368;6.782;2023-08-20T15:24:20;35.20;68.60
13616;DHT22;6879;51.368;6.782;2023-08-20T15:26:52;33.80;68.90
13616;DHT22;6879;51.368;6.782;2023-08-20T15:29:30;33.10;70.80
13616;DHT22;6879;51.368;6.782;2023-08-20T15:32:08;33.20;72.10
13616;DHT22;6879;51.368;6.782;2023-08-20T15:34:42;33.00;73.70
13616;DHT22;6879;51.368;6.782;2023-08-20T15:37:15;34.70;71.00
13616;DHT22;6879;51.368;6.782;2023-08-20T15:39:48;36.80;67.40
13616;DHT22;6879;51.368;6.782;2023-08-20T15:42:33;39.10;64.00
13616;DHT22;6879;51.368;6.782;2023-08-20T15:45:51;39.70;61.30
13616;DHT22;6879;51.368;6.782;2023-08-20T15:48:39;40.50;60.10
13616;DHT22;6879;51.368;6.782;2023-08-20T15:51:12;41.00;59.70
13616;DHT22;6879;51.368;6.782;2023-08-20T15:54:07;41.10;59.40
13616;DHT22;6879;51.368;6.782;2023-08-20T15:57:22;39.70;60.80
13616;DHT22;6879;51.368;6.782;2023-08-20T15:59:51;37.30;63.30
13616;DHT22;6879;51.368;6.782;2023-08-20T16:02:21;36.70;64.10
13616;DHT22;6879;51.368;6.782;2023-08-20T16:04:50;37.30;63.30
13616;DHT22;6879;51.368;6.782;2023-08-20T16:15:13;39.60;61.00
13616;DHT22;6879;51.368;6.782;2023-08-20T16:17:44;38.70;61.10
13616;DHT22;6879;51.368;6.782;2023-08-20T16:20:13;38.50;61.20
13616;DHT22;6879;51.368;6.782;2023-08-20T16:22:41;39.10;61.10
13616;DHT22;6879;51.368;6.782;2023-08-20T16:25:10;40.00;59.40
13616;DHT22;6879;51.368;6.782;2023-08-20T16:27:39;39.60;58.90
13616;DHT22;6879;51.368;6.782;2023-08-20T16:30:09;39.30;59.40
13616;DHT22;6879;51.368;6.782;2023-08-20T16:32:38;37.90;61.00